createdAt,value
2023-04-30T00:01:05.282Z,396.94118
2023-04-30T00:06:06.914Z,387.16547
2023-04-30T00:11:08.240Z,387.16547
2023-04-30T00:16:09.554Z,387.16547
2023-04-30T00:21:10.859Z,384
2023-04-30T00:26:12.183Z,390.37681
2023-04-30T00:31:13.564Z,384
2023-04-30T00:36:14.839Z,387.16547
2023-04-30T00:41:16.234Z,380.87943
2023-04-30T00:46:17.564Z,374.76923
2023-04-30T00:51:19.026Z,387.16547
2023-04-30T00:56:20.289Z,393.63504
2023-04-30T01:01:21.863Z,403.70149
2023-04-30T01:06:23.512Z,436.8
2023-04-30T01:11:25.046Z,440.77419
2023-04-30T01:16:26.645Z,440.77419
2023-04-30T01:21:28.262Z,457.33333
2023-04-30T01:26:29.836Z,530.66667
2023-04-30T01:31:31.452Z,572.57143
2023-04-30T01:36:33.006Z,644
2023-04-30T01:41:34.477Z,628.44444
2023-04-30T01:46:36.050Z,579.05155
2023-04-30T01:51:37.644Z,553.90099
2023-04-30T01:56:38.908Z,560
2023-04-30T02:01:40.489Z,553.90099
2023-04-30T02:06:42.008Z,542.05825
2023-04-30T02:11:43.278Z,579.05155
2023-04-30T02:16:44.558Z,579.05155
2023-04-30T02:21:46.042Z,585.66667
2023-04-30T02:26:47.624Z,566.22222
2023-04-30T02:31:49.239Z,585.66667
2023-04-30T02:36:50.839Z,606.36559
2023-04-30T02:41:52.397Z,599.31915
2023-04-30T02:46:53.881Z,599.31915
2023-04-30T02:51:55.510Z,636.13483
2023-04-30T02:56:57.069Z,613.56522
2023-04-30T03:01:58.665Z,636.13483
2023-04-30T03:07:00.294Z,620.92308
2023-04-30T03:12:03.909Z,606.36559
2023-04-30T03:17:05.427Z,613.56522
2023-04-30T03:22:07.089Z,677.33333
2023-04-30T03:27:08.684Z,644
2023-04-30T03:32:10.138Z,613.56522
2023-04-30T03:37:11.421Z,579.05155
2023-04-30T03:42:12.673Z,644
2023-04-30T03:47:13.944Z,628.44444
2023-04-30T03:52:15.379Z,613.56522
2023-04-30T03:57:16.653Z,686.16867
2023-04-30T04:02:18.042Z,677.33333
2023-04-30T04:07:19.645Z,644
2023-04-30T04:12:21.098Z,652.04598
2023-04-30T04:17:22.493Z,644
2023-04-30T04:22:23.912Z,723.74684
2023-04-30T04:27:25.265Z,677.33333
2023-04-30T04:32:26.859Z,636.13483
2023-04-30T04:37:28.466Z,620.92308
2023-04-30T04:42:29.933Z,613.56522
2023-04-30T04:47:31.278Z,636.13483
2023-04-30T04:52:32.764Z,606.36559
2023-04-30T04:57:34.042Z,644
2023-04-30T05:02:35.704Z,613.56522
2023-04-30T05:07:37.028Z,652.04598
2023-04-30T05:12:38.412Z,644
2023-04-30T05:17:39.873Z,668.70588
2023-04-30T05:22:41.250Z,606.36559
2023-04-30T05:27:42.590Z,695.21951
2023-04-30T05:32:43.887Z,660.27907
2023-04-30T05:37:45.301Z,652.04598
2023-04-30T05:42:46.589Z,636.13483
2023-04-30T05:47:47.916Z,765.33333
2023-04-30T05:52:49.450Z,744
2023-04-30T05:57:50.725Z,787.83562
2023-04-30T06:02:52.053Z,836.75362
2023-04-30T06:07:53.392Z,921.77778
2023-04-30T06:12:54.902Z,877.33333
2023-04-30T06:17:56.620Z,811.60563
2023-04-30T06:22:58.307Z,787.83562
2023-04-30T06:27:59.845Z,776.43243
2023-04-30T06:33:01.441Z,704.49383
2023-04-30T06:38:03.114Z,744
2023-04-30T06:43:04.691Z,686.16867
2023-04-30T06:48:06.315Z,714
2023-04-30T06:53:07.917Z,787.83562
2023-04-30T06:58:09.339Z,776.43243
2023-04-30T07:03:10.808Z,787.83562
2023-04-30T07:08:12.304Z,863.40299
2023-04-30T07:13:13.692Z,824
2023-04-30T07:18:15.044Z,863.40299
2023-04-30T07:23:16.405Z,1064
2023-04-30T07:28:17.656Z,1024.70175
2023-04-30T07:33:18.987Z,988.0678
2023-04-30T07:38:20.519Z,1283.13043
2023-04-30T07:43:21.760Z,1344
2023-04-30T07:48:23.080Z,1312.88889
2023-04-30T07:53:24.399Z,1523.48718
2023-04-30T07:58:25.718Z,1704
2023-04-30T08:03:27.111Z,1704
2023-04-30T08:08:28.434Z,1376.55814
2023-04-30T08:13:29.690Z,1704
2023-04-30T08:18:30.976Z,1565.05263
2023-04-30T08:23:32.357Z,1997.33333
2023-04-30T08:28:33.921Z,1997.33333
2023-04-30T08:33:35.501Z,1869
2023-04-30T08:38:36.987Z,2225.48148
2023-04-30T08:43:38.560Z,2144
2023-04-30T08:48:40.147Z,2622.26087
2023-04-30T08:53:41.403Z,3186.10526
2023-04-30T08:58:42.721Z,2622.26087
2023-04-30T09:03:44.099Z,4050.66667
2023-04-30T09:08:46.415Z,2877.33333
2023-04-30T09:13:47.667Z,2068.13793
2023-04-30T09:18:48.926Z,1201.14286
2023-04-30T09:23:50.284Z,1006.06897
2023-04-30T09:28:51.576Z,723.74684
2023-04-30T09:33:52.876Z,836.75362
2023-04-30T09:38:54.110Z,1176
2023-04-30T09:43:55.409Z,1869
2023-04-30T09:48:56.827Z,1869
2023-04-30T09:53:58.164Z,5077.33333
2023-04-30T09:58:59.689Z,6788.44444
2023-04-30T10:04:01.084Z,2877.33333
2023-04-30T10:09:02.657Z,12264
2023-04-30T10:14:04.209Z,20477.33333
2023-04-30T10:19:05.740Z,20477.33333
2023-04-30T10:24:07.085Z,30744
2023-04-30T10:29:08.400Z,20477.33333
2023-04-30T10:34:09.745Z,30744
2023-04-30T10:39:11.162Z,30744
2023-04-30T10:44:12.729Z,61544
2023-04-30T10:49:13.977Z,61544
2023-04-30T10:54:15.249Z,61544
2023-04-30T10:59:16.548Z,0
2023-04-30T11:04:17.997Z,0
2023-04-30T11:09:20.062Z,0
2023-04-30T11:14:21.374Z,0
2023-04-30T11:19:22.651Z,0
2023-04-30T11:24:24.014Z,0
2023-04-30T11:29:25.379Z,0
2023-04-30T11:34:26.767Z,0
2023-04-30T11:39:28.077Z,0
2023-04-30T11:44:29.350Z,0
2023-04-30T11:49:30.880Z,0
2023-04-30T11:54:32.154Z,0
2023-04-30T11:59:33.410Z,0
2023-04-30T12:04:34.941Z,0
2023-04-30T12:09:36.361Z,0
2023-04-30T12:14:37.785Z,0
2023-04-30T12:19:39.136Z,0
2023-04-30T12:24:40.656Z,0
2023-04-30T12:29:42.090Z,0
2023-04-30T12:34:43.668Z,0
2023-04-30T12:39:44.946Z,0
2023-04-30T12:44:46.311Z,0
2023-04-30T12:49:47.699Z,0
2023-04-30T12:54:49.168Z,0
2023-04-30T12:59:50.413Z,0
2023-04-30T13:04:51.727Z,0
2023-04-30T13:09:53.310Z,0
2023-04-30T13:14:54.869Z,0
2023-04-30T13:19:56.456Z,0
2023-04-30T13:24:58.223Z,0
2023-04-30T13:29:59.481Z,0
2023-04-30T13:35:00.998Z,0
2023-04-30T13:40:02.431Z,0
2023-04-30T13:45:03.684Z,0
2023-04-30T13:50:05.263Z,0
2023-04-30T13:55:06.559Z,0
2023-04-30T14:00:07.925Z,0
2023-04-30T14:05:09.347Z,0
2023-04-30T14:10:10.836Z,0
2023-04-30T14:15:12.249Z,0
2023-04-30T14:20:13.512Z,0
2023-04-30T14:25:14.844Z,0
2023-04-30T14:30:17.526Z,0
2023-04-30T14:35:18.890Z,0
2023-04-30T14:40:20.313Z,0
2023-04-30T14:45:21.658Z,0
2023-04-30T14:50:23.254Z,0
2023-04-30T14:55:24.651Z,0
2023-04-30T15:00:26.037Z,0
2023-04-30T15:05:27.363Z,0
2023-04-30T15:10:28.754Z,61544
2023-04-30T15:15:30.333Z,8744
2023-04-30T15:20:31.621Z,5077.33333
2023-04-30T15:25:32.987Z,10210.66667
2023-04-30T15:30:34.277Z,6788.44444
2023-04-30T15:35:35.564Z,5544
2023-04-30T15:40:36.994Z,1755.76471
2023-04-30T15:45:38.334Z,3024
2023-04-30T15:50:39.698Z,6788.44444
2023-04-30T15:55:41.214Z,3186.10526
2023-04-30T16:00:42.622Z,3024
2023-04-30T16:05:44.291Z,5077.33333
2023-04-30T16:10:45.685Z,8744
2023-04-30T16:15:47.245Z,5077.33333
2023-04-30T16:20:48.488Z,4682.46154
2023-04-30T16:25:50.162Z,3567.52941
2023-04-30T16:30:51.605Z,3794
2023-04-30T16:35:53.028Z,3794
2023-04-30T16:40:54.921Z,6788.44444
2023-04-30T16:45:56.576Z,2622.26087
2023-04-30T16:50:58.146Z,1655.11111
2023-04-30T16:55:59.649Z,1484
2023-04-30T17:01:01.065Z,1523.48718
2023-04-30T17:06:02.663Z,2510.66667
2023-04-30T17:11:04.185Z,5077.33333
2023-04-30T17:16:05.580Z,3794
2023-04-30T17:21:06.911Z,6104
2023-04-30T17:26:08.277Z,6104
2023-04-30T17:31:09.666Z,8744
2023-04-30T17:36:11.074Z,5544
2023-04-30T17:41:12.788Z,8744
2023-04-30T17:46:14.255Z,5544
2023-04-30T17:51:15.679Z,5077.33333
2023-04-30T17:56:17.169Z,3186.10526
2023-04-30T18:01:18.685Z,1931.09677
2023-04-30T18:06:20.559Z,2313.23077
2023-04-30T18:11:22.308Z,2068.13793
2023-04-30T18:16:23.690Z,1755.76471
2023-04-30T18:21:25.480Z,1755.76471
2023-04-30T18:26:27.376Z,1608.86486
2023-04-30T18:31:29.211Z,1283.13043
2023-04-30T18:36:30.927Z,1810.66667
2023-04-30T18:41:32.932Z,1931.09677
2023-04-30T18:46:34.797Z,2225.48148
2023-04-30T18:51:36.651Z,2622.26087
2023-04-30T18:56:38.727Z,2144
2023-04-30T19:01:40.637Z,1344
2023-04-30T19:06:42.725Z,1608.86486
2023-04-30T19:11:44.668Z,1446.43902
2023-04-30T19:16:46.648Z,1176
2023-04-30T19:21:48.799Z,1151.84314
2023-04-30T19:26:50.815Z,1176
2023-04-30T19:31:53.002Z,1024.70175
2023-04-30T19:36:55.056Z,953.83607
2023-04-30T19:41:57.059Z,1044
2023-04-30T19:46:58.722Z,1128.61538
2023-04-30T19:52:00.517Z,1283.13043
2023-04-30T19:57:02.480Z,1128.61538
2023-04-30T20:02:04.232Z,921.77778
2023-04-30T20:07:05.776Z,849.88235
2023-04-30T20:12:07.301Z,953.83607
2023-04-30T20:17:08.948Z,1024.70175
2023-04-30T20:22:10.493Z,1106.26415
2023-04-30T20:27:12.054Z,1344
2023-04-30T20:32:13.721Z,1344
2023-04-30T20:37:15.375Z,988.0678
2023-04-30T20:42:17.141Z,1084.74074
2023-04-30T20:47:19.537Z,953.83607
2023-04-30T20:52:21.342Z,953.83607
2023-04-30T20:57:22.802Z,937.54839
2023-04-30T21:02:24.050Z,1024.70175
2023-04-30T21:07:25.574Z,1227.33333
2023-04-30T21:12:27.053Z,1312.88889
2023-04-30T21:17:28.519Z,1523.48718
2023-04-30T21:22:29.861Z,2225.48148
2023-04-30T21:27:31.235Z,3366.22222
2023-04-30T21:32:32.680Z,3024
2023-04-30T21:37:34.327Z,3366.22222
2023-04-30T21:42:35.808Z,3366.22222
2023-04-30T21:47:37.284Z,2877.33333
2023-04-30T21:52:38.791Z,3794
2023-04-30T21:57:40.689Z,2408
2023-04-30T22:02:42.341Z,3024
2023-04-30T22:07:43.984Z,2744
2023-04-30T22:12:47.944Z,2313.23077
2023-04-30T22:17:50.004Z,1931.09677
2023-04-30T22:22:51.593Z,1565.05263
2023-04-30T22:27:53.216Z,1312.88889
2023-04-30T22:32:55.244Z,1024.70175
2023-04-30T22:37:56.553Z,921.77778
2023-04-30T22:42:58.044Z,937.54839
2023-04-30T22:48:01.617Z,953.83607
2023-04-30T22:53:03.620Z,953.83607
2023-04-30T22:58:05.177Z,906.5
2023-04-30T23:03:06.566Z,877.33333
2023-04-30T23:08:08.263Z,836.75362
2023-04-30T23:13:09.936Z,836.75362
2023-04-30T23:18:11.518Z,836.75362
2023-04-30T23:23:13.131Z,799.55556
2023-04-30T23:28:14.763Z,744
2023-04-30T23:33:16.101Z,723.74684
2023-04-30T23:38:17.469Z,714
2023-04-30T23:43:18.994Z,714
2023-04-30T23:48:20.389Z,686.16867
2023-04-30T23:53:21.990Z,744
2023-04-30T23:58:23.331Z,733.74359
